Willmar, MN

12:33 PM CDT on October 01, 2016 (GMT -0500)
Willmar | | Change Station

Elev 1188 ft 45.15 °N, 95.00 °W | Updated 6 minutes ago

Clear
Clear
67.4 °F
Feels Like 67.4 °F
N
0.0
Wind Variable Wind from SE
Gusts 0.0 mph

Today
High -- | Low -- °F
--% Chance of Precip.
Yesterday
High -- | Low -- °F
Precip. -- in
Pressure 30.16 in
Visibility 10.0 miles
Clouds Clear
Dew Point 56 °F
Humidity 68%
Rainfall 0.00 in
Snow Depth Not available.
7:18 AM 6:59 PM
New Moon, 1% visible
METAR KBDH 011716Z AUTO 11005KT 10SM CLR 20/13 A3016 RMK AO2
Pressure 30.16 in
Visibility 10.0 miles
Clouds Clear
Dew Point 56 °F
Humidity 68%
Rainfall 0.00 in
Snow Depth Not available.
7:18 AM 6:59 PM
New Moon, 1% visible
METAR KBDH 011716Z AUTO 11005KT 10SM CLR 20/13 A3016 RMK AO2

10-Day Weather Forecast

Almanac

Astronomy

Oct. 01, 2016 Rise Set
Actual Time
Civil Twilight
Nautical Twilight
Astronomical Twilight
Moon
Length of Visible Light
Length of Day
Tomorrow will be .
, % of the Moon is Illuminated

Today's Extremes

State Highs State Lows

Community

WunderPhotos

Upload Photos

1,942,963 photos uploaded!

WunderBlog® & News

Nearby

Air Quality

  Air Quality AQ Index Pollutant
Not available.

Snow Depth

Station Depth Elevation

Earthquake Activity

City Distance Mag. Time & Date
Minimum magnitude displayed is 2.5.

Coastal Water Temperatures

Place Temperature

Stations

Nearby Weather Stations

Station Location Temp. Windchill Dew Point Humidity Wind Precip. Elev Updated Type
                   

Watches & Warnings

There are currently no watches in effect.